createdAt,value
2022-12-06T00:01:32.157Z,8.95
2022-12-06T00:04:02.543Z,8.93
2022-12-06T00:06:30.833Z,8.46
2022-12-06T00:08:58.385Z,9.13
2022-12-06T00:11:27.337Z,8.46
2022-12-06T00:13:56.173Z,7.39
2022-12-06T00:16:24.099Z,7.72
2022-12-06T00:18:51.947Z,8.44
2022-12-06T00:21:23.011Z,8.21
2022-12-06T00:23:58.487Z,8.18
2022-12-06T00:26:26.189Z,7.79
2022-12-06T00:28:55.043Z,7.45
2022-12-06T00:31:23.252Z,8.12
2022-12-06T00:33:51.061Z,7.70
2022-12-06T00:36:24.177Z,7.56
2022-12-06T00:38:51.824Z,7.93
2022-12-06T00:41:20.562Z,8.02
2022-12-06T00:43:48.049Z,7.94
2022-12-06T00:46:20.237Z,7.80
2022-12-06T00:48:47.863Z,7.62
2022-12-06T00:51:15.921Z,8.10
2022-12-06T00:53:43.664Z,7.58
2022-12-06T00:56:11.118Z,8.31
2022-12-06T00:58:38.514Z,8.43
2022-12-06T01:01:23.150Z,8.35
2022-12-06T01:03:54.409Z,8.10
2022-12-06T01:06:23.500Z,7.48
2022-12-06T01:08:50.885Z,7.98
2022-12-06T01:11:18.271Z,8.16
2022-12-06T01:13:45.951Z,7.62
2022-12-06T01:16:17.211Z,7.34
2022-12-06T01:18:44.711Z,7.16
2022-12-06T01:21:17.454Z,7.76
2022-12-06T01:23:45.086Z,7.85
2022-12-06T01:26:16.006Z,7.46
2022-12-06T01:28:43.565Z,7.76
2022-12-06T01:31:11.093Z,7.06
2022-12-06T01:33:38.744Z,7.90
2022-12-06T01:36:06.367Z,7.48
2022-12-06T01:38:33.721Z,7.90
2022-12-06T01:41:01.390Z,7.38
2022-12-06T01:43:32.967Z,7.72
2022-12-06T01:46:24.724Z,7.77
2022-12-06T01:48:54.958Z,7.60
2022-12-06T01:51:22.555Z,7.79
2022-12-06T01:53:49.868Z,7.94
2022-12-06T01:56:17.243Z,8.25
2022-12-06T01:58:44.859Z,8.24
2022-12-06T02:01:12.502Z,8.41
2022-12-06T02:03:40.169Z,8.44
2022-12-06T02:06:08.513Z,8.33
2022-12-06T02:08:35.900Z,7.70
2022-12-06T02:11:03.785Z,8.19
2022-12-06T02:13:31.734Z,8.55
2022-12-06T02:16:12.249Z,8.77
2022-12-06T02:19:24.237Z,8.87
2022-12-06T02:22:20.797Z,9.03
2022-12-06T02:25:04.617Z,8.93
2022-12-06T02:27:34.915Z,8.89
2022-12-06T02:30:25.193Z,8.78
2022-12-06T02:33:05.742Z,8.80
2022-12-06T02:35:41.139Z,8.88
2022-12-06T02:38:29.617Z,8.94
2022-12-06T02:40:58.789Z,9.08
2022-12-06T02:43:32.159Z,8.51
2022-12-06T02:45:59.862Z,7.97
2022-12-06T02:48:27.275Z,7.31
2022-12-06T02:51:00.181Z,7.32
2022-12-06T02:53:28.389Z,6.90
2022-12-06T02:55:55.736Z,7.64
2022-12-06T02:58:23.101Z,7.29
2022-12-06T03:00:52.474Z,7.40
2022-12-06T03:04:00.250Z,7.34
2022-12-06T03:06:41.375Z,6.70
2022-12-06T03:09:34.742Z,6.52
2022-12-06T03:12:05.070Z,7.07
2022-12-06T03:14:38.524Z,6.76
2022-12-06T03:17:16.705Z,7.27
2022-12-06T03:19:44.154Z,6.63
2022-12-06T03:22:20.128Z,7.17
2022-12-06T03:24:47.487Z,6.75
2022-12-06T03:27:16.755Z,6.84
2022-12-06T03:29:46.604Z,7.17
2022-12-06T03:32:14.370Z,7.29
2022-12-06T03:34:44.254Z,7.12
2022-12-06T03:37:14.468Z,7.55
2022-12-06T03:39:48.491Z,6.92
2022-12-06T03:42:15.788Z,6.34
2022-12-06T03:44:43.487Z,7.09
2022-12-06T03:47:42.009Z,7.56
2022-12-06T03:50:13.582Z,7.81
2022-12-06T03:52:40.921Z,6.90
2022-12-06T03:55:08.656Z,7.39
2022-12-06T03:57:36.409Z,7.95
2022-12-06T04:00:04.821Z,6.59
2022-12-06T04:02:38.836Z,7.65
2022-12-06T04:05:06.566Z,7.83
2022-12-06T04:07:33.942Z,7.52
2022-12-06T04:10:04.446Z,7.43
2022-12-06T04:12:51.659Z,6.42
2022-12-06T04:15:19.667Z,6.56
2022-12-06T04:18:06.201Z,6.60
2022-12-06T04:20:53.647Z,6.98
2022-12-06T04:23:21.562Z,6.70
2022-12-06T04:25:48.966Z,7.12
2022-12-06T04:28:35.089Z,7.12
2022-12-06T04:31:22.528Z,7.43
2022-12-06T04:34:09.321Z,7.68
2022-12-06T04:36:58.396Z,7.72
2022-12-06T04:39:25.782Z,7.73
2022-12-06T04:42:12.177Z,7.75
2022-12-06T04:44:39.558Z,8.12
2022-12-06T04:47:07.470Z,8.07
2022-12-06T04:49:34.844Z,8.40
2022-12-06T04:52:02.273Z,8.50
2022-12-06T04:54:30.331Z,8.54
2022-12-06T04:56:58.108Z,8.39
2022-12-06T04:59:26.193Z,8.26
2022-12-06T05:01:53.854Z,8.37
2022-12-06T05:04:21.240Z,8.28
2022-12-06T05:06:48.782Z,7.86
2022-12-06T05:09:16.367Z,7.54
2022-12-06T05:11:43.732Z,8.21
2022-12-06T05:14:11.065Z,8.17
2022-12-06T05:16:38.810Z,7.85
2022-12-06T05:19:06.218Z,8.17
2022-12-06T05:21:33.533Z,8.24
2022-12-06T05:24:01.292Z,8.52
2022-12-06T05:26:28.972Z,8.50
2022-12-06T05:28:56.497Z,8.67
2022-12-06T05:31:24.993Z,8.74
2022-12-06T05:33:52.380Z,8.63
2022-12-06T05:36:21.728Z,8.54
2022-12-06T05:38:51.572Z,8.73
2022-12-06T05:41:20.162Z,8.63
2022-12-06T05:43:47.504Z,8.50
2022-12-06T05:46:15.202Z,8.56
2022-12-06T05:48:42.572Z,8.75
2022-12-06T05:51:09.929Z,8.87
2022-12-06T05:53:37.666Z,8.77
2022-12-06T05:56:09.695Z,8.68
2022-12-06T05:58:37.230Z,8.72
2022-12-06T06:01:05.880Z,8.47
2022-12-06T06:03:33.711Z,8.70
2022-12-06T06:06:01.567Z,8.68
2022-12-06T06:08:29.156Z,8.59
2022-12-06T06:10:56.985Z,8.33
2022-12-06T06:13:24.324Z,8.53
2022-12-06T06:15:51.696Z,8.62
2022-12-06T06:18:19.314Z,8.57
2022-12-06T06:20:54.456Z,8.54
2022-12-06T06:23:22.095Z,8.07
2022-12-06T06:25:49.584Z,8.16
2022-12-06T06:28:17.455Z,8.37
2022-12-06T06:30:45.155Z,8.18
2022-12-06T06:33:12.554Z,8.34
2022-12-06T06:35:40.233Z,7.85
2022-12-06T06:38:07.953Z,8.07
2022-12-06T06:40:35.405Z,8.22
2022-12-06T06:43:18.171Z,8.35
2022-12-06T06:45:56.214Z,8.57
2022-12-06T06:48:24.243Z,8.38
2022-12-06T06:50:57.014Z,8.06
2022-12-06T06:53:27.544Z,8.23
2022-12-06T06:55:55.352Z,7.90
2022-12-06T06:58:22.967Z,8.39
2022-12-06T07:00:58.065Z,8.36
2022-12-06T07:03:25.822Z,8.20
2022-12-06T07:05:53.674Z,7.81
2022-12-06T07:08:21.199Z,8.06
2022-12-06T07:10:48.982Z,7.54
2022-12-06T07:13:17.171Z,7.86
2022-12-06T07:15:44.674Z,7.80
2022-12-06T07:18:12.345Z,7.69
2022-12-06T07:20:39.691Z,8.06
2022-12-06T07:23:07.053Z,8.05
2022-12-06T07:25:34.663Z,7.71
2022-12-06T07:28:02.167Z,8.01
2022-12-06T07:30:29.515Z,8.14
2022-12-06T07:32:57.476Z,7.84
2022-12-06T07:35:42.039Z,7.87
2022-12-06T07:38:13.259Z,7.88
2022-12-06T07:41:03.535Z,8.02
2022-12-06T07:43:47.200Z,7.96
2022-12-06T07:46:14.641Z,7.79
2022-12-06T07:48:42.359Z,7.38
2022-12-06T07:51:09.703Z,7.59
2022-12-06T07:53:37.263Z,7.57
2022-12-06T07:56:08.369Z,7.40
2022-12-06T07:58:35.721Z,7.37
2022-12-06T08:01:04.426Z,7.33
2022-12-06T08:03:32.218Z,7.35
2022-12-06T08:05:59.638Z,7.50
2022-12-06T08:08:29.020Z,6.97
2022-12-06T08:11:04.524Z,7.38
2022-12-06T08:13:31.960Z,7.39
2022-12-06T08:15:59.711Z,7.65
2022-12-06T08:18:27.163Z,7.18
2022-12-06T08:20:54.596Z,7.32
2022-12-06T08:23:22.201Z,7.27
2022-12-06T08:25:58.984Z,6.72
2022-12-06T08:28:26.705Z,6.66
2022-12-06T08:30:57.068Z,6.40
2022-12-06T08:33:29.240Z,6.28
2022-12-06T08:35:56.696Z,6.84
2022-12-06T08:38:24.079Z,7.08
2022-12-06T08:40:51.696Z,6.92
2022-12-06T08:43:19.070Z,7.05
2022-12-06T08:45:51.225Z,6.96
2022-12-06T08:48:19.093Z,7.11
2022-12-06T08:50:46.407Z,6.53
2022-12-06T08:53:15.987Z,6.26
2022-12-06T08:55:58.753Z,6.23
2022-12-06T08:58:29.703Z,5.99
2022-12-06T09:00:57.479Z,6.18
2022-12-06T09:03:24.802Z,6.36
2022-12-06T09:05:52.151Z,6.43
2022-12-06T09:08:20.380Z,6.49
2022-12-06T09:10:47.888Z,6.84
2022-12-06T09:13:15.217Z,6.98
2022-12-06T09:15:42.926Z,7.13
2022-12-06T09:18:10.280Z,7.02
2022-12-06T09:20:41.176Z,7.13
2022-12-06T09:23:08.935Z,6.89
2022-12-06T09:25:36.303Z,7.44
2022-12-06T09:28:03.804Z,6.87
2022-12-06T09:30:31.649Z,7.08
2022-12-06T09:32:59.020Z,7.36
2022-12-06T09:35:26.477Z,7.50
2022-12-06T09:37:54.336Z,7.83
2022-12-06T09:40:32.372Z,7.36
2022-12-06T09:43:22.320Z,7.69
2022-12-06T09:46:28.811Z,7.82
2022-12-06T09:49:22.673Z,7.82
2022-12-06T09:52:19.808Z,8.21
2022-12-06T09:55:06.744Z,8.14
2022-12-06T09:58:06.809Z,8.32
2022-12-06T10:00:44.300Z,8.32
2022-12-06T10:03:37.789Z,8.67
2022-12-06T10:06:12.219Z,8.06
2022-12-06T10:08:58.698Z,7.75
2022-12-06T10:12:03.963Z,7.95
2022-12-06T10:15:07.420Z,7.46
2022-12-06T10:17:52.590Z,7.93
2022-12-06T10:20:28.844Z,7.34
2022-12-06T10:23:19.939Z,7.93
2022-12-06T10:26:22.525Z,7.98
2022-12-06T10:28:56.295Z,7.46
2022-12-06T10:31:28.524Z,7.49
2022-12-06T10:34:23.097Z,7.59
2022-12-06T10:37:22.414Z,7.92
2022-12-06T10:40:03.485Z,8.37
2022-12-06T10:42:44.268Z,7.83
2022-12-06T10:45:36.279Z,8.13
2022-12-06T10:48:08.082Z,7.80
2022-12-06T10:50:35.747Z,8.22
2022-12-06T10:53:05.883Z,7.66
2022-12-06T10:55:41.706Z,7.81
2022-12-06T10:58:27.729Z,7.51
2022-12-06T11:00:58.988Z,7.20
2022-12-06T11:03:35.541Z,6.99
2022-12-06T11:06:07.115Z,7.43
2022-12-06T11:08:37.203Z,7.40
2022-12-06T11:11:05.627Z,7.58
2022-12-06T11:13:37.651Z,7.61
2022-12-06T11:16:22.562Z,7.84
2022-12-06T11:18:49.929Z,7.91
2022-12-06T11:21:22.276Z,7.73
2022-12-06T11:24:03.825Z,8.03
2022-12-06T11:26:37.525Z,7.72
2022-12-06T11:29:07.947Z,7.36
2022-12-06T11:31:48.899Z,7.14
2022-12-06T11:34:20.795Z,7.12
2022-12-06T11:36:51.959Z,7.30
2022-12-06T11:39:22.802Z,7.32
2022-12-06T11:41:53.023Z,7.91
2022-12-06T11:44:23.192Z,7.55
2022-12-06T11:46:57.707Z,7.66
2022-12-06T11:49:39.287Z,7.02
2022-12-06T11:52:41.807Z,7.08
2022-12-06T11:55:17.827Z,7.00
2022-12-06T11:57:49.796Z,6.56
2022-12-06T12:00:19.121Z,7.35
2022-12-06T12:02:47.958Z,7.24
2022-12-06T12:05:41.596Z,7.29
2022-12-06T12:08:18.827Z,7.18
2022-12-06T12:10:46.589Z,6.99
2022-12-06T12:13:32.752Z,6.80
2022-12-06T12:16:01.640Z,7.24
2022-12-06T12:18:34.743Z,7.53
2022-12-06T12:21:02.069Z,7.43
2022-12-06T12:23:43.128Z,6.96
2022-12-06T12:26:18.366Z,7.16
2022-12-06T12:29:02.621Z,7.41
2022-12-06T12:31:30.216Z,6.93
2022-12-06T12:34:26.682Z,7.48
2022-12-06T12:37:01.590Z,7.15
2022-12-06T12:39:38.995Z,7.36
2022-12-06T12:42:27.940Z,6.70
2022-12-06T12:44:59.026Z,7.43
2022-12-06T12:47:26.744Z,7.45
2022-12-06T12:50:22.383Z,7.32
2022-12-06T12:52:50.132Z,7.19
2022-12-06T12:55:30.399Z,6.96
2022-12-06T12:57:59.161Z,6.92
2022-12-06T13:00:28.619Z,7.59
2022-12-06T13:03:01.070Z,7.16
2022-12-06T13:05:33.925Z,7.12
2022-12-06T13:08:27.179Z,7.13
2022-12-06T13:10:59.148Z,7.83
2022-12-06T13:13:28.191Z,7.62
2022-12-06T13:15:57.113Z,7.76
2022-12-06T13:18:27.500Z,7.65
2022-12-06T13:20:57.188Z,7.56
2022-12-06T13:23:29.456Z,7.87
2022-12-06T13:26:23.568Z,7.50
2022-12-06T13:28:53.566Z,7.94
2022-12-06T13:31:23.004Z,8.31
2022-12-06T13:33:59.115Z,7.90
2022-12-06T13:36:26.780Z,7.92
2022-12-06T13:38:56.111Z,7.55
2022-12-06T13:41:49.123Z,7.99
2022-12-06T13:44:39.205Z,7.78
2022-12-06T13:47:48.378Z,7.66
2022-12-06T13:50:18.567Z,7.69
2022-12-06T13:52:45.729Z,7.48
2022-12-06T13:55:25.276Z,6.86
2022-12-06T13:57:55.520Z,7.00
2022-12-06T14:00:31.518Z,7.24
2022-12-06T14:03:02.693Z,7.61
2022-12-06T14:06:06.052Z,7.26
2022-12-06T14:08:40.695Z,7.59
2022-12-06T14:11:27.380Z,7.57
2022-12-06T14:13:55.113Z,7.53
2022-12-06T14:16:39.182Z,7.59
2022-12-06T14:19:23.221Z,7.78
2022-12-06T14:22:02.596Z,7.53
2022-12-06T14:24:31.918Z,7.10
2022-12-06T14:27:04.578Z,7.88
2022-12-06T14:29:33.131Z,7.45
2022-12-06T14:32:00.519Z,7.28
2022-12-06T14:34:32.539Z,7.43
2022-12-06T14:37:03.244Z,7.84
2022-12-06T14:39:31.275Z,7.91
2022-12-06T14:42:22.653Z,7.86
2022-12-06T14:44:53.291Z,7.91
2022-12-06T14:47:23.059Z,7.67
2022-12-06T14:50:16.432Z,7.90
2022-12-06T14:53:02.456Z,7.77
2022-12-06T14:55:34.561Z,7.91
2022-12-06T14:58:10.920Z,7.93
2022-12-06T15:00:38.559Z,7.97
2022-12-06T15:03:05.754Z,8.28
2022-12-06T15:05:36.996Z,7.98
2022-12-06T15:08:26.732Z,8.08
2022-12-06T15:10:57.309Z,8.30
2022-12-06T15:13:25.118Z,7.55
2022-12-06T15:16:04.296Z,8.02
2022-12-06T15:18:36.908Z,8.10
2022-12-06T15:21:18.828Z,7.93
2022-12-06T15:23:50.269Z,8.04
2022-12-06T15:26:18.039Z,7.99
2022-12-06T15:28:45.603Z,8.03
2022-12-06T15:31:23.039Z,8.05
2022-12-06T15:33:50.699Z,7.93
2022-12-06T15:36:22.841Z,7.61
2022-12-06T15:38:50.426Z,7.85
2022-12-06T15:41:21.225Z,7.92
2022-12-06T15:43:53.345Z,7.50
2022-12-06T15:46:23.685Z,7.43
2022-12-06T15:48:53.052Z,7.68
2022-12-06T15:51:24.770Z,7.73
2022-12-06T15:53:52.616Z,7.67
2022-12-06T15:56:23.979Z,7.87
2022-12-06T15:58:51.713Z,7.72
2022-12-06T16:01:21.604Z,7.47
2022-12-06T16:03:54.142Z,7.34
2022-12-06T16:06:22.453Z,7.20
2022-12-06T16:08:50.068Z,7.49
2022-12-06T16:11:20.392Z,7.40
2022-12-06T16:13:47.780Z,7.25
2022-12-06T16:16:16.527Z,7.25
2022-12-06T16:18:44.072Z,7.27
2022-12-06T16:21:22.105Z,7.15
2022-12-06T16:24:13.068Z,7.34
2022-12-06T16:26:42.425Z,6.42
2022-12-06T16:29:20.963Z,6.62
2022-12-06T16:31:48.671Z,6.71
2022-12-06T16:34:16.500Z,6.61
2022-12-06T16:37:13.039Z,6.81
2022-12-06T16:39:40.786Z,6.64
2022-12-06T16:42:08.138Z,6.35
2022-12-06T16:44:50.803Z,6.80
2022-12-06T16:47:18.539Z,6.52
2022-12-06T16:49:48.011Z,6.96
2022-12-06T16:52:16.279Z,6.90
2022-12-06T16:54:44.026Z,7.06
2022-12-06T16:57:11.663Z,7.36
2022-12-06T16:59:39.097Z,6.57
2022-12-06T17:02:30.739Z,6.51
2022-12-06T17:05:01.233Z,6.68
2022-12-06T17:07:29.492Z,6.63
2022-12-06T17:09:56.816Z,6.61
2022-12-06T17:12:24.215Z,6.47
2022-12-06T17:14:51.888Z,6.58
2022-12-06T17:17:21.315Z,6.36
2022-12-06T17:19:49.052Z,6.08
2022-12-06T17:22:16.769Z,6.37
2022-12-06T17:24:44.402Z,5.91
2022-12-06T17:27:14.783Z,5.98
2022-12-06T17:29:43.600Z,6.35
2022-12-06T17:32:11.835Z,6.43
2022-12-06T17:34:39.256Z,6.49
2022-12-06T17:37:06.841Z,6.77
2022-12-06T17:39:34.210Z,6.70
2022-12-06T17:42:20.397Z,6.69
2022-12-06T17:44:48.001Z,6.74
2022-12-06T17:47:15.325Z,6.88
2022-12-06T17:49:42.927Z,6.67
2022-12-06T17:52:12.066Z,6.84
2022-12-06T17:54:39.506Z,6.56
2022-12-06T17:57:06.840Z,6.68
2022-12-06T17:59:34.423Z,6.87
2022-12-06T18:02:18.174Z,6.85
2022-12-06T18:04:47.355Z,6.36
2022-12-06T18:07:15.089Z,6.61
2022-12-06T18:09:42.497Z,6.55
2022-12-06T18:12:10.851Z,6.47
2022-12-06T18:14:38.243Z,6.42
2022-12-06T18:17:05.626Z,6.66
2022-12-06T18:19:33.601Z,6.49
2022-12-06T18:22:00.938Z,6.69
2022-12-06T18:24:33.623Z,6.48
2022-12-06T18:27:04.517Z,6.38
2022-12-06T18:29:32.053Z,6.43
2022-12-06T18:31:59.448Z,6.43
2022-12-06T18:34:27.238Z,6.58
2022-12-06T18:36:54.583Z,6.56
2022-12-06T18:39:24.842Z,6.54
2022-12-06T18:41:53.158Z,6.68
2022-12-06T18:44:20.617Z,6.66
2022-12-06T18:46:48.089Z,6.77
2022-12-06T18:49:15.735Z,6.71
2022-12-06T18:51:43.083Z,6.39
2022-12-06T18:54:10.784Z,6.57
2022-12-06T18:56:38.401Z,6.74
2022-12-06T18:59:07.035Z,6.58
2022-12-06T19:01:38.666Z,6.42
2022-12-06T19:04:07.408Z,6.33
2022-12-06T19:06:35.905Z,6.46
2022-12-06T19:09:07.733Z,6.28
2022-12-06T19:11:39.050Z,6.28
2022-12-06T19:14:06.489Z,6.11
2022-12-06T19:16:41.418Z,6.34
2022-12-06T19:19:16.625Z,6.22
2022-12-06T19:21:47.398Z,5.95
2022-12-06T19:24:16.767Z,6.07
2022-12-06T19:26:44.473Z,6.07
2022-12-06T19:29:12.924Z,6.04
2022-12-06T19:31:40.531Z,5.95
2022-12-06T19:34:22.636Z,5.91
2022-12-06T19:36:51.375Z,5.86
2022-12-06T19:39:19.427Z,5.90
2022-12-06T19:42:05.811Z,5.87
2022-12-06T19:44:33.694Z,6.01
2022-12-06T19:47:01.042Z,5.94
2022-12-06T19:49:28.664Z,5.93
2022-12-06T19:51:56.289Z,5.54
2022-12-06T19:54:28.315Z,5.49
2022-12-06T19:56:57.154Z,5.89
2022-12-06T19:59:25.816Z,5.88
2022-12-06T20:01:54.170Z,6.13
2022-12-06T20:04:23.172Z,5.42
2022-12-06T20:06:51.220Z,5.68
2022-12-06T20:09:19.526Z,5.19
2022-12-06T20:12:07.394Z,5.31
2022-12-06T20:14:36.193Z,5.47
2022-12-06T20:17:08.980Z,5.70
2022-12-06T20:19:37.261Z,5.57
2022-12-06T20:22:04.906Z,5.58
2022-12-06T20:24:32.650Z,5.93
2022-12-06T20:26:59.979Z,6.23
2022-12-06T20:29:27.597Z,5.52
2022-12-06T20:31:56.046Z,5.70
2022-12-06T20:34:23.418Z,5.74
2022-12-06T20:36:51.009Z,5.66
2022-12-06T20:39:20.894Z,5.59
2022-12-06T20:41:48.483Z,5.46
2022-12-06T20:44:16.386Z,5.70
2022-12-06T20:46:44.093Z,5.81
2022-12-06T20:49:11.492Z,5.76
2022-12-06T20:51:39.139Z,5.45
2022-12-06T20:54:06.714Z,5.52
2022-12-06T20:56:35.722Z,5.74
2022-12-06T20:59:04.269Z,5.57
2022-12-06T21:01:34.053Z,5.70
2022-12-06T21:04:01.432Z,5.81
2022-12-06T21:06:29.129Z,5.52
2022-12-06T21:08:56.562Z,5.84
2022-12-06T21:11:24.908Z,5.79
2022-12-06T21:13:53.719Z,5.81
2022-12-06T21:16:22.935Z,5.68
2022-12-06T21:19:00.928Z,5.32
2022-12-06T21:21:30.730Z,5.63
2022-12-06T21:24:01.716Z,5.90
2022-12-06T21:26:29.727Z,5.89
2022-12-06T21:28:57.328Z,5.92
2022-12-06T21:31:51.009Z,5.98
2022-12-06T21:34:18.575Z,6.02
2022-12-06T21:36:45.920Z,6.05
2022-12-06T21:39:13.399Z,6.03
2022-12-06T21:41:41.166Z,5.93
2022-12-06T21:44:08.546Z,5.96
2022-12-06T21:46:35.928Z,6.01
2022-12-06T21:49:03.729Z,5.71
2022-12-06T21:51:31.474Z,5.79
2022-12-06T21:53:58.845Z,5.60
2022-12-06T21:56:28.083Z,5.55
2022-12-06T21:58:55.543Z,5.71
2022-12-06T22:01:25.490Z,5.73
2022-12-06T22:03:53.918Z,5.27
2022-12-06T22:06:21.399Z,5.63
2022-12-06T22:08:48.942Z,5.41
2022-12-06T22:11:18.342Z,5.70
2022-12-06T22:13:46.890Z,5.35
2022-12-06T22:16:14.338Z,5.64
2022-12-06T22:18:45.587Z,5.89
2022-12-06T22:21:18.946Z,5.65
2022-12-06T22:23:46.898Z,5.73
2022-12-06T22:26:16.048Z,5.85
2022-12-06T22:28:43.444Z,5.97
2022-12-06T22:31:11.952Z,5.94
2022-12-06T22:33:39.543Z,6.14
2022-12-06T22:36:07.296Z,6.21
2022-12-06T22:38:34.937Z,6.07
2022-12-06T22:41:02.363Z,6.02
2022-12-06T22:43:29.776Z,6.03
2022-12-06T22:46:06.619Z,6.16
2022-12-06T22:48:33.973Z,6.27
2022-12-06T22:51:11.601Z,5.87
2022-12-06T22:53:43.215Z,6.27
2022-12-06T22:56:11.034Z,6.27
2022-12-06T22:58:38.521Z,5.97
2022-12-06T23:01:16.055Z,6.25
2022-12-06T23:03:45.477Z,6.26
2022-12-06T23:06:13.880Z,6.05
2022-12-06T23:08:41.520Z,6.29
2022-12-06T23:11:11.435Z,6.28
2022-12-06T23:13:38.773Z,6.42
2022-12-06T23:16:07.811Z,6.26
2022-12-06T23:18:35.505Z,6.44
2022-12-06T23:21:11.705Z,6.25
2022-12-06T23:23:40.045Z,6.08
2022-12-06T23:26:09.100Z,6.32
2022-12-06T23:28:36.527Z,6.36
2022-12-06T23:31:11.859Z,6.59
2022-12-06T23:33:39.253Z,6.44
2022-12-06T23:36:07.933Z,6.19
2022-12-06T23:38:35.606Z,6.03
2022-12-06T23:41:07.312Z,5.91
2022-12-06T23:43:35.429Z,6.02
2022-12-06T23:46:07.471Z,6.23
2022-12-06T23:48:35.707Z,5.51
2022-12-06T23:51:13.850Z,5.94
2022-12-06T23:53:41.939Z,5.62
2022-12-06T23:56:11.033Z,5.59
2022-12-06T23:58:38.460Z,5.50
